Time;durP1;ratioP1;P1;durP2;ratioP2;P2;SDS_P1;SDS_P2;PMS_P1;PMS_P2;Temp;Humidity;BMP_temperature;BMP_pressure;BME280_temperature;BME280_humidity;BME280_pressure;Samples;Min_cycle;Max_cycle;Signal;HPM_P1;HPM_P2
2023/01/11 00:00:39;;;;;;;19.23;9.77;;;5.20;99.90;;;4.96;69.45;94360.59;4976757;28;20723;-56
2023/01/11 00:03:06;;;;;;;21.93;9.50;;;5.20;99.90;;;4.95;69.41;94364.16;4974930;28;21057;-54
2023/01/11 00:05:38;;;;;;;12.90;8.20;;;5.10;99.90;;;4.94;69.58;94366.88;4976702;28;20446;-55
2023/01/11 00:08:05;;;;;;;15.83;8.60;;;5.10;99.90;;;4.93;69.63;94367.84;4975921;28;20567;-56
2023/01/11 00:10:33;;;;;;;17.17;8.50;;;5.10;99.90;;;4.92;69.56;94353.13;4979458;28;20450;-56
2023/01/11 00:13:00;;;;;;;14.27;7.50;;;5.10;99.90;;;4.92;69.91;94363.56;4976835;28;20601;-57
2023/01/11 00:15:27;;;;;;;10.40;6.90;;;5.10;99.90;;;4.90;69.84;94362.84;4979429;28;21105;-55
2023/01/11 00:17:56;;;;;;;14.70;7.33;;;5.10;99.90;;;4.89;69.69;94369.81;4975819;28;20474;-56
2023/01/11 00:20:24;;;;;;;11.23;6.80;;;5.10;99.90;;;4.87;69.54;94363.91;4976878;28;20640;-55
2023/01/11 00:22:51;;;;;;;12.37;6.37;;;5.10;99.90;;;4.85;69.60;94360.59;4975927;28;20509;-57
2023/01/11 00:25:18;;;;;;;10.83;6.27;;;5.00;99.90;;;4.83;69.65;94360.72;4974868;28;20451;-56
2023/01/11 00:27:48;;;;;;;6.90;4.33;;;5.00;99.90;;;4.82;69.67;94368.66;4976473;28;20483;-57
2023/01/11 00:30:15;;;;;;;4.70;4.30;;;5.00;99.90;;;4.80;69.60;94373.13;4976090;28;20490;-56
2023/01/11 00:32:43;;;;;;;7.80;3.60;;;5.00;99.90;;;4.79;69.30;94371.50;4979118;28;20895;-56
2023/01/11 00:35:12;;;;;;;6.73;3.47;;;5.00;99.90;;;4.77;69.35;94376.81;4975932;28;20455;-55
2023/01/11 00:37:39;;;;;;;8.70;5.10;;;5.00;99.90;;;4.77;69.44;94375.97;4980608;28;20470;-56
2023/01/11 00:40:09;;;;;;;7.20;4.80;;;5.00;99.90;;;4.78;69.42;94382.84;4975579;28;20498;-53
2023/01/11 00:48:06;;;;;;;3.87;2.80;;;4.90;99.90;;;4.72;69.52;94375.50;4973638;28;20446;-56
2023/01/11 00:50:36;;;;;;;2.40;2.10;;;4.90;99.90;;;4.70;69.19;94373.00;4971280;28;20455;-57
2023/01/11 00:53:04;;;;;;;4.40;2.50;;;4.90;99.90;;;4.69;69.18;94383.56;4976369;28;20479;-56
2023/01/11 00:55:31;;;;;;;2.30;2.10;;;4.90;99.90;;;4.67;69.54;94387.09;4975204;28;20455;-56
2023/01/11 00:57:59;;;;;;;3.60;2.60;;;4.90;99.90;;;4.67;69.38;94387.09;4975849;28;20558;-56
2023/01/11 01:00:27;;;;;;;2.40;2.23;;;4.80;99.90;;;4.67;69.33;94386.28;4980601;28;20501;-56
2023/01/11 01:02:54;;;;;;;3.60;2.90;;;4.90;99.90;;;4.63;69.54;94375.28;4980052;28;20470;-57
2023/01/11 01:05:21;;;;;;;3.70;3.33;;;4.90;99.90;;;4.65;69.29;94382.97;4979664;28;20963;-57
2023/01/11 01:07:50;;;;;;;6.27;4.17;;;4.90;99.90;;;4.64;69.38;94384.72;4979476;28;20479;-57
2023/01/11 01:10:18;;;;;;;6.23;4.00;;;4.80;99.90;;;4.62;69.53;94386.63;4979130;28;21022;-54
2023/01/11 01:15:29;;;;;;;3.37;2.47;;;4.80;99.90;;;4.60;69.46;94385.91;4980674;28;20836;-56
2023/01/11 01:17:57;;;;;;;4.90;2.40;;;4.80;99.90;;;4.58;69.59;94381.75;4980827;28;20478;-57
2023/01/11 01:20:25;;;;;;;6.60;2.80;;;4.80;99.90;;;4.58;69.13;94379.16;4976486;28;20566;-54
2023/01/11 01:22:53;;;;;;;2.50;2.30;;;4.80;99.90;;;4.57;69.63;94380.09;4978595;28;20842;-56
2023/01/11 01:25:20;;;;;;;3.00;2.20;;;4.80;99.90;;;4.55;69.49;94382.00;4977269;28;20460;-56
2023/01/11 01:27:48;;;;;;;2.83;2.50;;;4.70;99.90;;;4.55;69.65;94382.00;4978161;28;20478;-55
2023/01/11 01:30:15;;;;;;;3.33;2.47;;;4.70;99.90;;;4.55;69.65;94387.19;4976317;28;20452;-54
2023/01/11 01:32:43;;;;;;;3.00;2.27;;;4.70;99.90;;;4.54;69.66;94390.72;4983567;28;21049;-56
2023/01/11 01:35:11;;;;;;;3.20;2.83;;;4.70;99.90;;;4.53;69.49;94387.31;4979103;28;20936;-55
2023/01/11 01:37:38;;;;;;;3.53;2.80;;;4.70;99.90;;;4.52;69.52;94388.25;4987794;28;20493;-56
2023/01/11 01:40:09;;;;;;;2.60;2.43;;;4.70;99.90;;;4.52;69.72;94397.84;4978849;28;20509;-56
2023/01/11 01:42:36;;;;;;;2.83;2.57;;;4.70;99.90;;;4.49;69.75;94386.72;4977824;28;20466;-56
2023/01/11 01:45:07;;;;;;;2.70;2.50;;;4.70;99.90;;;4.49;69.71;94396.28;4978839;28;20442;-55
2023/01/11 01:47:45;;;;;;;2.83;2.40;;;4.70;99.90;;;4.48;69.72;94395.47;4977338;28;20528;-57
2023/01/11 01:50:16;;;;;;;3.13;2.53;;;4.70;99.90;;;4.46;69.88;94391.31;4981557;28;20962;-58
2023/01/11 01:52:45;;;;;;;2.47;2.00;;;4.70;99.90;;;4.46;69.91;94396.50;4974068;28;20510;-56
2023/01/11 01:55:16;;;;;;;2.87;2.40;;;4.70;99.90;;;4.45;70.07;94387.06;4977390;28;20526;-57
2023/01/11 01:57:43;;;;;;;2.00;1.80;;;4.70;99.90;;;4.43;69.75;94399.34;4975899;28;20534;-55
2023/01/11 02:00:12;;;;;;;2.37;2.17;;;4.70;99.90;;;4.41;69.80;94396.84;4983152;28;20606;-56
2023/01/11 02:02:38;;;;;;;4.30;2.57;;;4.60;99.90;;;4.37;69.73;94399.81;4979313;28;20871;-54
2023/01/11 02:05:07;;;;;;;3.40;2.40;;;4.60;99.90;;;4.41;69.79;94398.66;4978309;28;20457;-54
2023/01/11 02:07:35;;;;;;;2.87;2.67;;;4.60;99.90;;;4.41;69.79;94386.44;4976973;28;20478;-55
2023/01/11 02:10:06;;;;;;;3.00;2.80;;;4.60;99.90;;;4.42;69.81;94388.13;4978987;28;20987;-57
2023/01/11 02:12:39;;;;;;;2.67;2.47;;;4.60;99.90;;;4.43;69.86;94401.94;4978165;28;20506;-56
2023/01/11 02:15:07;;;;;;;2.80;2.60;;;4.60;99.90;;;4.44;69.86;94407.03;4981035;28;20483;-55
2023/01/11 02:17:34;;;;;;;2.43;2.27;;;4.60;99.90;;;4.45;69.98;94407.91;4978037;28;20483;-55
2023/01/11 02:20:18;;;;;;;3.67;2.47;;;4.70;99.90;;;4.47;69.95;94414.63;4978885;28;20566;-56
2023/01/11 02:23:47;;;;;;;2.87;2.57;;;4.70;99.90;;;4.48;69.94;94418.91;4973700;28;20495;-55
2023/01/11 02:27:18;;;;;;;2.57;2.37;;;4.70;99.90;;;4.50;69.94;94429.22;4920209;28;20564;-53
2023/01/11 02:29:53;;;;;;;3.10;2.27;;;4.70;99.90;;;4.53;69.38;94436.78;4911202;28;20470;-56
2023/01/11 02:32:26;;;;;;;3.23;2.67;;;4.70;99.90;;;4.55;69.58;94440.09;4980045;28;20537;-56
2023/01/11 02:35:00;;;;;;;2.43;2.10;;;4.70;99.90;;;4.54;69.55;94453.25;4975961;28;20487;-57
2023/01/11 02:37:31;;;;;;;9.23;2.70;;;4.70;99.90;;;4.52;69.79;94457.75;4982611;28;20489;-54
2023/01/11 02:40:05;;;;;;;3.03;2.80;;;4.70;99.90;;;4.49;69.86;94456.19;4980393;28;20479;-57
2023/01/11 02:45:35;;;;;;;3.10;2.50;;;4.70;99.90;;;4.46;69.89;94464.22;4978854;28;20447;-56
2023/01/11 02:48:04;;;;;;;2.60;2.40;;;4.70;99.90;;;4.43;69.68;94467.03;4977020;28;20478;-57
2023/01/11 02:50:34;;;;;;;2.53;2.23;;;4.70;99.90;;;4.39;70.10;94465.63;4982121;28;20476;-55
2023/01/11 02:53:06;;;;;;;2.73;2.30;;;4.60;99.90;;;4.39;69.95;94470.84;4980393;28;20853;-54
2023/01/11 02:55:36;;;;;;;2.43;2.27;;;4.60;99.90;;;4.41;69.86;94469.75;4978269;28;20452;-56
2023/01/11 02:58:03;;;;;;;10.40;5.77;;;4.60;99.90;;;4.43;70.31;94472.25;4979453;28;20478;-56
2023/01/11 03:00:32;;;;;;;165.60;55.37;;;4.60;99.90;;;4.46;70.22;94472.03;4982636;28;20494;-57
2023/01/11 03:03:12;;;;;;;170.80;54.50;;;4.60;99.90;;;4.51;70.22;94469.94;4981739;28;20483;-55
2023/01/11 03:05:46;;;;;;;30.53;13.63;;;4.70;99.90;;;4.55;70.15;94473.97;4979868;28;20469;-56
2023/01/11 03:09:06;;;;;;;7.77;3.37;;;4.70;99.90;;;4.57;70.00;94482.50;4976308;28;20483;-55
2023/01/11 03:14:40;;;;;;;5.10;4.10;;;4.80;99.90;;;4.49;70.09;94482.22;4984418;28;20871;-55
2023/01/11 03:17:13;;;;;;;5.97;5.33;;;4.70;99.90;;;4.46;69.99;94477.25;4977600;28;20971;-53
2023/01/11 03:19:43;;;;;;;7.93;5.00;;;4.70;99.90;;;4.43;70.55;94480.06;4977360;28;20458;-56
2023/01/11 03:22:14;;;;;;;5.23;4.77;;;4.70;99.90;;;4.42;70.10;94487.06;4975942;28;20466;-56
2023/01/11 03:24:45;;;;;;;5.30;4.80;;;4.60;99.90;;;4.40;70.15;94488.09;4979221;28;20525;-53
2023/01/11 03:27:19;;;;;;;5.27;4.77;;;4.60;99.90;;;4.35;70.48;94487.63;4981166;28;20577;-55
2023/01/11 03:29:51;;;;;;;8.60;6.13;;;4.60;99.90;;;4.30;70.69;94493.97;4978862;28;20458;-55
2023/01/11 03:32:27;;;;;;;18.57;9.33;;;4.50;99.90;;;4.28;70.56;94488.06;4979687;28;21049;-53
2023/01/11 03:35:04;;;;;;;10.83;6.20;;;4.50;99.90;;;4.26;70.65;94487.34;4980689;28;20485;-55
2023/01/11 03:37:34;;;;;;;10.93;6.23;;;4.50;99.90;;;4.23;70.83;94481.50;4981330;28;20489;-53
2023/01/11 03:40:06;;;;;;;9.07;6.60;;;4.40;99.90;;;4.24;71.02;94488.41;4979706;28;20459;-57
2023/01/11 03:42:33;;;;;;;6.20;5.60;;;4.40;99.90;;;4.27;71.06;94483.78;4975439;28;20863;-53
2023/01/11 03:45:01;;;;;;;9.80;6.70;;;4.50;99.90;;;4.32;70.85;94480.84;4978715;28;20462;-54
2023/01/11 03:47:30;;;;;;;6.70;6.03;;;4.50;99.90;;;4.37;71.52;94488.31;4978393;28;20479;-55
2023/01/11 03:49:59;;;;;;;7.50;6.30;;;4.60;99.90;;;4.42;70.80;94489.66;4982023;28;20447;-57
2023/01/11 03:52:33;;;;;;;10.93;6.00;;;4.60;99.90;;;4.45;70.38;94486.84;4984176;28;20466;-56
2023/01/11 03:55:00;;;;;;;8.70;7.33;;;4.60;99.90;;;4.51;70.64;94487.31;4979508;28;20451;-57
2023/01/11 03:57:32;;;;;;;6.73;6.03;;;4.70;99.90;;;4.53;70.57;94494.09;4980990;28;20542;-56
2023/01/11 03:59:59;;;;;;;6.63;5.77;;;4.70;99.90;;;4.60;70.64;94484.03;4978729;28;20452;-57
2023/01/11 04:02:33;;;;;;;6.73;5.30;;;4.80;99.90;;;4.64;71.13;94488.09;4977954;28;20471;-56
2023/01/11 04:05:00;;;;;;;6.43;4.80;;;4.80;99.90;;;4.70;70.40;94497.22;4976664;28;21031;-55
2023/01/11 04:07:28;;;;;;;5.60;5.03;;;4.90;99.90;;;4.74;70.36;94504.72;4979775;28;20585;-56
2023/01/11 04:09:57;;;;;;;5.47;4.90;;;4.90;99.90;;;4.77;70.21;94501.88;4975452;28;20463;-56
2023/01/11 04:12:24;;;;;;;7.60;4.83;;;4.90;99.90;;;4.80;69.94;94500.81;4979044;28;20541;-54
2023/01/11 04:14:51;;;;;;;5.10;4.70;;;5.00;99.90;;;4.83;69.91;94511.84;4981297;28;20446;-56
2023/01/11 04:17:19;;;;;;;6.57;4.70;;;5.00;99.90;;;4.86;69.92;94510.75;4976456;28;20486;-57
2023/01/11 04:19:47;;;;;;;5.50;4.60;;;5.00;99.90;;;4.89;69.86;94515.75;4979035;28;20566;-56
2023/01/11 04:22:15;;;;;;;3.97;3.67;;;5.10;99.90;;;4.93;69.63;94511.16;4976452;28;20479;-58
2023/01/11 04:24:42;;;;;;;4.23;3.83;;;5.10;99.90;;;4.93;69.57;94511.97;4981635;28;20466;-53
2023/01/11 04:27:09;;;;;;;3.80;3.40;;;5.10;99.90;;;4.97;69.41;94516.03;4977927;28;20463;-55
2023/01/11 04:29:36;;;;;;;3.23;2.93;;;5.10;99.90;;;4.98;69.08;94525.50;4979476;28;21018;-54
2023/01/11 04:32:04;;;;;;;4.50;2.67;;;5.20;99.90;;;5.02;69.11;94526.13;4978738;28;20459;-55
2023/01/11 04:34:31;;;;;;;10.63;2.93;;;5.20;99.90;;;5.05;68.84;94520.66;4976443;28;20484;-56
2023/01/11 04:37:00;;;;;;;3.30;2.73;;;5.20;99.90;;;5.07;68.75;94529.19;4980672;28;20467;-57
2023/01/11 04:39:27;;;;;;;2.83;2.63;;;5.20;99.90;;;5.07;68.81;94528.38;4981863;28;20462;-57
2023/01/11 04:44:39;;;;;;;3.30;2.67;;;5.20;99.90;;;5.10;68.96;94539.41;4983075;28;20461;-58
2023/01/11 04:47:06;;;;;;;3.33;2.63;;;5.30;99.90;;;5.11;68.75;94537.59;4981727;28;20446;-56
2023/01/11 04:49:34;;;;;;;3.33;3.03;;;5.30;99.90;;;5.12;68.83;94539.28;4983257;28;20455;-55
2023/01/11 04:52:02;;;;;;;3.30;3.00;;;5.30;99.90;;;5.13;68.62;94543.56;4977614;28;20545;-56
2023/01/11 04:54:30;;;;;;;6.40;4.00;;;5.30;99.90;;;5.14;68.57;94540.84;4983447;28;20454;-56
2023/01/11 04:56:57;;;;;;;5.50;3.77;;;5.30;99.90;;;5.15;68.81;94547.69;4982548;28;20459;-56
2023/01/11 04:59:25;;;;;;;7.00;3.90;;;5.30;99.90;;;5.17;68.53;94551.03;4982802;28;20809;-55
2023/01/11 05:01:52;;;;;;;5.83;3.90;;;5.30;99.90;;;5.21;68.89;94557.66;4980924;28;20494;-55
2023/01/11 05:04:20;;;;;;;4.83;4.10;;;5.40;99.90;;;5.24;68.44;94566.22;4981026;28;21121;-55
2023/01/11 05:06:47;;;;;;;2.67;2.43;;;5.40;99.90;;;5.26;68.68;94556.50;4978247;28;20981;-56
2023/01/11 05:09:16;;;;;;;3.63;3.13;;;5.40;99.90;;;5.26;68.35;94554.72;4983781;28;20525;-56
2023/01/11 05:11:44;;;;;;;2.70;2.50;;;5.40;99.90;;;5.27;68.68;94553.78;4983984;28;20462;-56
2023/01/11 05:14:11;;;;;;;2.10;2.00;;;5.40;99.90;;;5.29;68.59;94559.69;4983143;28;20482;-55
2023/01/11 05:16:38;;;;;;;2.83;2.63;;;5.50;99.90;;;5.27;68.18;94566.81;4978878;28;20555;-57
2023/01/11 05:19:06;;;;;;;2.10;1.90;;;5.40;99.90;;;5.28;68.26;94568.44;4984613;28;20478;-57
2023/01/11 05:21:38;;;;;;;2.33;2.13;;;5.40;99.90;;;5.29;69.12;94570.13;4978465;28;20586;-57
2023/01/11 05:24:07;;;;;;;2.03;1.93;;;5.50;99.90;;;5.31;68.40;94583.03;4981754;28;20540;-55
2023/01/11 05:26:37;;;;;;;1.37;1.27;;;5.50;99.90;;;5.33;68.25;94584.59;4979578;28;20486;-57
2023/01/11 05:29:05;;;;;;;1.87;1.77;;;5.50;99.90;;;5.34;68.21;94577.59;4977718;28;20486;-55
2023/01/11 05:31:33;;;;;;;2.10;2.00;;;5.50;99.90;;;5.34;68.25;94577.59;4977491;28;20530;-57
2023/01/11 05:34:00;;;;;;;2.20;2.10;;;5.50;99.90;;;5.35;68.46;94579.28;4981787;28;20482;-56
2023/01/11 05:36:28;;;;;;;2.63;2.43;;;5.50;99.90;;;5.34;68.08;94575.00;4984286;28;20960;-57
2023/01/11 05:38:56;;;;;;;3.10;2.80;;;5.50;99.90;;;5.35;68.33;94574.06;4979436;28;20485;-56
2023/01/11 05:41:25;;;;;;;2.23;2.13;;;5.50;99.90;;;5.35;68.02;94576.66;4978442;28;20494;-56
2023/01/11 05:46:39;;;;;;;3.57;3.27;;;5.50;99.90;;;5.38;67.81;94587.69;4984077;28;20844;-56
2023/01/11 05:49:07;;;;;;;2.90;2.63;;;5.50;99.90;;;5.38;67.98;94585.06;4979522;28;20476;-56
2023/01/11 05:51:34;;;;;;;2.60;2.30;;;5.50;99.90;;;5.39;67.73;94589.34;4978039;28;20452;-56
2023/01/11 05:54:03;;;;;;;2.83;2.63;;;5.60;99.90;;;5.39;67.69;94597.19;4975854;28;20475;-55
2023/01/11 05:56:30;;;;;;;2.40;2.10;;;5.60;99.90;;;5.42;67.92;94603.09;4971865;28;21071;-58
2023/01/11 05:58:59;;;;;;;2.27;2.07;;;5.60;99.90;;;5.38;67.67;94592.91;4979983;28;20470;-56
2023/01/11 06:01:26;;;;;;;1.70;1.60;;;5.60;99.90;;;5.41;67.90;94604.88;4976300;28;20495;-57
2023/01/11 06:03:53;;;;;;;1.80;1.70;;;5.60;99.90;;;5.39;67.34;94609.38;4980957;28;20491;-56
2023/01/11 06:06:21;;;;;;;2.10;1.90;;;5.60;99.90;;;5.38;67.53;94600.72;4979549;28;20488;-56
2023/01/11 06:08:48;;;;;;;3.30;2.60;;;5.50;99.90;;;5.39;67.76;94609.38;4978828;28;20477;-56
2023/01/11 06:11:15;;;;;;;3.73;2.97;;;5.50;99.90;;;5.40;67.51;94603.22;4976814;28;20459;-56
2023/01/11 06:13:43;;;;;;;3.43;3.13;;;5.50;99.90;;;5.37;67.75;94612.09;4979727;28;20466;-55
2023/01/11 06:16:12;;;;;;;5.47;4.97;;;5.50;99.90;;;5.37;67.20;94616.50;4976393;28;20465;-57
2023/01/11 06:18:41;;;;;;;3.37;3.17;;;5.50;99.90;;;5.37;67.21;94617.31;4978187;28;20467;-57
2023/01/11 06:21:09;;;;;;;5.60;3.70;;;5.50;99.90;;;5.38;67.22;94626.81;4978780;28;20491;-57
2023/01/11 06:23:38;;;;;;;3.27;3.00;;;5.50;99.90;;;5.39;67.46;94628.47;4978687;28;20577;-56
2023/01/11 06:26:07;;;;;;;4.40;3.30;;;5.60;99.90;;;5.41;67.60;94636.19;4976233;28;20809;-56
2023/01/11 06:28:35;;;;;;;3.80;3.20;;;5.60;99.90;;;5.44;67.19;94640.31;4978183;28;20485;-57
2023/01/11 06:31:02;;;;;;;3.13;2.90;;;5.60;99.90;;;5.50;67.51;94640.72;4976507;28;20462;-56
2023/01/11 06:33:31;;;;;;;2.70;2.43;;;5.60;99.90;;;5.59;67.22;94641.78;4976535;28;20474;-53
2023/01/11 06:35:58;;;;;;;3.47;2.57;;;5.70;99.90;;;5.63;67.00;94645.84;4978917;28;20454;-55
2023/01/11 06:38:26;;;;;;;3.60;3.30;;;5.80;99.90;;;5.67;67.12;94649.03;4979292;28;20467;-56
2023/01/11 06:40:54;;;;;;;4.03;3.50;;;5.80;99.90;;;5.71;66.85;94650.47;4976461;28;20566;-54
2023/01/11 06:43:22;;;;;;;3.83;3.43;;;5.80;99.90;;;5.68;66.51;94643.69;4976844;28;20854;-56
2023/01/11 06:45:49;;;;;;;4.37;3.77;;;5.90;99.90;;;5.75;66.50;94649.31;4981276;28;21029;-56
2023/01/11 06:48:16;;;;;;;4.80;3.33;;;5.90;99.90;;;5.76;66.59;94653.56;4975810;28;20549;-56
2023/01/11 06:50:47;;;;;;;5.03;4.47;;;5.90;99.90;;;5.79;66.70;94661.16;4979052;28;20459;-55
2023/01/11 06:53:15;;;;;;;6.10;4.10;;;5.90;99.90;;;5.82;66.64;94662.72;4979863;28;20474;-56
2023/01/11 06:55:42;;;;;;;4.70;3.70;;;5.90;99.90;;;5.83;66.13;94667.00;4981849;28;20528;-56
2023/01/11 06:58:09;;;;;;;7.00;4.23;;;6.00;99.90;;;5.87;66.31;94665.81;4980014;28;20545;-56
2023/01/11 07:00:37;;;;;;;6.50;3.80;;;6.00;99.90;;;5.92;68.67;94658.47;4975333;28;20483;-57
2023/01/11 07:03:05;;;;;;;3.97;3.30;;;6.00;99.90;;;6.01;68.71;94670.84;4982209;28;20929;-56
2023/01/11 07:05:34;;;;;;;3.00;2.80;;;6.10;99.90;;;6.14;69.74;94675.13;4978079;28;20512;-54
2023/01/11 07:08:03;;;;;;;3.40;3.10;;;6.20;99.90;;;6.30;68.75;94680.00;4977250;28;20473;-56
2023/01/11 07:10:30;;;;;;;5.10;2.60;;;6.40;99.90;;;6.38;67.69;94683.69;4975118;28;20979;-55
2023/01/11 07:12:57;;;;;;;3.73;2.60;;;6.50;99.90;;;6.43;67.02;94681.56;4979183;28;20486;-57
2023/01/11 07:15:25;;;;;;;3.10;2.80;;;6.60;99.90;;;6.47;66.52;94689.97;4976709;28;20489;-55
2023/01/11 07:17:54;;;;;;;7.73;2.83;;;6.60;99.90;;;6.50;66.34;94694.97;4976657;28;20502;-55
2023/01/11 07:20:22;;;;;;;3.33;3.00;;;6.60;99.90;;;6.52;65.54;94694.84;4974875;28;20462;-55
2023/01/11 07:22:49;;;;;;;2.73;2.53;;;6.70;99.90;;;6.53;64.99;94697.34;4976765;28;20494;-56
2023/01/11 07:25:18;;;;;;;2.87;2.67;;;6.70;99.90;;;6.55;64.93;94697.22;4977434;28;20870;-56
2023/01/11 07:27:45;;;;;;;2.23;2.13;;;6.70;99.90;;;6.57;64.54;94701.38;4977026;28;20927;-56
2023/01/11 07:30:13;;;;;;;3.40;3.10;;;6.70;99.90;;;6.60;65.37;94702.91;4977839;28;20900;-57
2023/01/11 07:32:41;;;;;;;3.90;3.23;;;6.70;99.90;;;6.64;64.61;94709.56;4971971;28;21033;-54
2023/01/11 07:35:09;;;;;;;5.50;4.07;;;6.70;99.90;;;6.66;64.54;94710.25;4977719;28;20454;-54
2023/01/11 07:37:40;;;;;;;4.13;3.83;;;6.80;99.90;;;6.72;64.76;94715.00;4983215;28;20463;-59
2023/01/11 07:40:09;;;;;;;5.53;4.00;;;6.80;99.90;;;6.75;63.85;94722.59;4977226;28;20447;-57
2023/01/11 07:45:22;;;;;;;3.77;3.17;;;6.90;99.90;;;6.86;64.53;94731.41;4977524;28;20816;-56
2023/01/11 07:47:50;;;;;;;3.13;2.90;;;7.00;99.90;;;6.92;64.16;94736.16;4981330;28;20470;-56
2023/01/11 07:50:18;;;;;;;3.73;3.17;;;7.10;99.90;;;7.01;64.11;94738.03;4975865;28;20500;-57
2023/01/11 07:52:47;;;;;;;4.17;3.27;;;7.10;99.90;;;7.20;63.88;94726.13;4976855;28;20581;-55
2023/01/11 07:55:15;;;;;;;2.10;2.00;;;7.20;99.90;;;7.38;63.59;94739.50;4975961;28;20922;-56
2023/01/11 07:57:44;;;;;;;2.33;2.23;;;7.40;99.90;;;7.49;62.59;94736.84;4969259;28;20533;-57
2023/01/11 08:00:13;;;;;;;4.90;1.90;;;7.50;99.70;;;7.56;62.50;94748.50;4978608;28;20458;-57
2023/01/11 08:02:40;;;;;;;1.50;1.40;;;7.60;99.30;;;7.62;62.47;94752.38;4977558;28;20875;-58
2023/01/11 08:05:08;;;;;;;1.40;1.30;;;7.70;99.20;;;7.69;61.86;94748.31;4973997;28;20836;-54
2023/01/11 08:07:36;;;;;;;1.80;1.70;;;7.80;99.00;;;7.73;61.93;94749.75;4976373;28;20471;-55
2023/01/11 08:10:03;;;;;;;1.20;1.10;;;7.80;98.90;;;7.76;61.75;94754.72;4973915;28;20455;-56
2023/01/11 08:15:17;;;;;;;1.40;1.07;;;8.10;98.60;;;8.71;61.06;94756.44;4979966;28;20441;-54
2023/01/11 08:17:45;;;;;;;1.10;1.00;;;8.60;98.70;;;9.27;59.36;94760.34;4981146;28;20529;-56
2023/01/11 08:20:12;;;;;;;1.10;0.77;;;9.00;97.80;;;9.73;58.16;94759.88;4979099;28;20459;-58
2023/01/11 08:22:39;;;;;;;1.00;0.80;;;9.60;96.90;;;10.46;58.01;94769.97;4980715;28;20498;-56
2023/01/11 08:25:08;;;;;;;1.10;1.00;;;10.20;96.40;;;11.25;56.63;94771.34;4978649;28;20470;-57
2023/01/11 08:27:35;;;;;;;1.20;1.10;;;10.90;95.70;;;11.86;55.27;94775.13;4980129;28;20902;-57
2023/01/11 08:30:02;;;;;;;1.33;1.23;;;11.50;94.60;;;12.40;54.31;94783.03;4981374;28;20556;-56
2023/01/11 08:32:31;;;;;;;1.20;1.10;;;12.00;93.70;;;12.74;53.40;94790.19;4979202;28;20994;-56
2023/01/11 08:34:58;;;;;;;1.40;1.30;;;12.40;92.40;;;12.85;52.67;94784.66;4982186;28;20513;-55
2023/01/11 08:37:26;;;;;;;2.30;1.40;;;12.70;91.40;;;12.95;52.18;94794.28;4981643;28;20474;-54
2023/01/11 08:39:54;;;;;;;1.67;1.57;;;12.80;90.40;;;13.00;52.10;94802.56;4981009;28;21090;-56
2023/01/11 08:42:22;;;;;;;2.63;2.10;;;12.90;90.10;;;13.03;50.97;94799.63;4981325;28;20505;-55
2023/01/11 08:44:49;;;;;;;1.60;1.50;;;13.00;88.40;;;13.18;51.16;94805.94;4978538;28;20520;-57
2023/01/11 08:47:16;;;;;;;1.57;1.33;;;13.10;87.60;;;13.57;50.91;94792.28;4981184;28;20456;-56
2023/01/11 08:49:45;;;;;;;1.40;1.30;;;13.40;87.70;;;14.08;49.62;94802.84;4981781;28;20919;-56
2023/01/11 08:52:13;;;;;;;1.60;1.50;;;13.80;84.60;;;14.65;48.44;94807.34;4977581;28;20462;-56
2023/01/11 08:54:40;;;;;;;1.00;0.90;;;14.40;83.80;;;15.23;48.26;94801.97;4979722;28;20454;-56
2023/01/11 08:57:08;;;;;;;1.30;1.20;;;14.90;82.90;;;15.84;46.38;94793.44;4976748;28;20458;-56
2023/01/11 08:59:35;;;;;;;1.37;1.27;;;15.50;79.40;;;16.45;45.96;94799.69;4981038;28;20988;-57
2023/01/11 09:02:03;;;;;;;4.17;1.70;;;16.00;76.60;;;16.96;44.96;94803.59;4979901;28;20556;-57
2023/01/11 09:04:30;;;;;;;0.87;0.60;;;16.50;73.40;;;17.24;40.88;94808.28;4980302;28;20461;-57
2023/01/11 09:06:59;;;;;;;1.10;0.93;;;16.80;64.20;;;17.26;43.59;94811.59;4980245;28;20552;-54
2023/01/11 09:09:26;;;;;;;1.43;1.10;;;16.90;68.50;;;17.05;42.78;94810.47;4979089;28;20461;-55
2023/01/11 09:11:54;;;;;;;1.20;0.83;;;16.80;65.30;;;16.65;42.36;94815.13;4980348;28;20454;-57
2023/01/11 09:14:21;;;;;;;1.03;0.70;;;16.60;63.70;;;16.20;42.83;94812.28;4989138;28;20467;-56
2023/01/11 09:16:48;;;;;;;1.40;0.70;;;16.20;64.00;;;15.72;43.73;94820.34;4980107;28;20870;-57
2023/01/11 09:19:16;;;;;;;2.03;1.00;;;15.80;64.60;;;15.33;44.20;94815.00;4978169;28;21014;-57
2023/01/11 09:21:43;;;;;;;1.40;1.30;;;15.40;65.30;;;14.96;44.67;94813.75;4979663;28;20461;-56
2023/01/11 09:24:12;;;;;;;1.23;0.60;;;15.00;65.60;;;14.59;45.06;94813.25;4977502;28;21085;-56
2023/01/11 09:26:40;;;;;;;0.80;0.70;;;14.70;65.90;;;14.21;45.51;94810.28;4979413;28;20839;-57
2023/01/11 09:29:07;;;;;;;1.00;0.80;;;14.30;67.20;;;13.90;46.36;94813.53;4978131;28;20477;-56
2023/01/11 09:31:35;;;;;;;1.30;0.80;;;14.00;68.10;;;13.61;46.59;94820.03;4979596;28;20447;-57
2023/01/11 09:34:03;;;;;;;1.10;1.00;;;13.70;68.30;;;13.33;47.13;94816.78;4978689;28;21157;-55
2023/01/11 09:36:32;;;;;;;1.50;0.70;;;13.50;69.70;;;13.08;47.55;94821.91;4981098;28;20454;-57
2023/01/11 09:39:01;;;;;;;0.90;0.60;;;13.20;70.40;;;12.82;47.85;94824.56;4978341;28;21010;-57
2023/01/11 09:42:23;;;;;;;1.20;0.93;;;13.00;70.20;;;12.50;47.74;94823.34;4980004;28;20478;-56
2023/01/11 09:44:55;;;;;;;1.63;1.50;;;12.70;71.10;;;12.27;48.35;94824.78;4975808;28;20474;-57
2023/01/11 09:47:31;;;;;;;1.47;1.37;;;12.40;71.70;;;12.08;48.11;94820.50;4979959;28;20475;-56
2023/01/11 09:50:01;;;;;;;0.80;0.60;;;12.20;71.20;;;12.13;48.43;94827.00;4976896;28;20447;-56
2023/01/11 09:52:32;;;;;;;0.90;0.80;;;12.10;71.70;;;12.13;47.82;94824.34;4976343;28;20475;-57
2023/01/11 09:55:00;;;;;;;0.90;0.80;;;12.00;71.30;;;12.09;47.22;94828.25;4979984;28;20446;-56
2023/01/11 09:57:41;;;;;;;0.90;0.80;;;12.00;70.40;;;12.03;47.79;94828.84;4979316;28;20478;-56
2023/01/11 10:00:19;;;;;;;0.90;0.70;;;11.90;71.80;;;12.02;48.57;94821.91;4980874;28;20467;-57
2023/01/11 10:02:59;;;;;;;1.30;1.20;;;11.90;72.80;;;12.00;48.21;94818.59;4980666;28;20500;-56
2023/01/11 10:05:50;;;;;;;0.87;0.87;;;12.00;72.90;;;11.87;48.61;94826.00;4978582;28;20451;-55
2023/01/11 10:08:38;;;;;;;0.80;0.67;;;11.90;73.20;;;11.63;46.72;94822.13;4973422;28;20530;-55
2023/01/11 10:11:15;;;;;;;0.90;0.80;;;11.70;69.30;;;11.30;48.80;94819.13;4977970;28;20792;-56
2023/01/11 10:13:49;;;;;;;1.10;0.60;;;11.50;72.40;;;11.01;48.12;94820.06;4981673;28;20920;-54
2023/01/11 10:16:27;;;;;;;1.57;0.80;;;11.10;70.40;;;10.73;49.85;94822.63;4977727;28;20462;-55
2023/01/11 10:19:04;;;;;;;1.10;1.00;;;10.90;73.40;;;10.52;49.65;94825.44;4978384;28;20471;-57
2023/01/11 10:21:37;;;;;;;0.80;0.60;;;10.70;73.30;;;10.31;50.03;94822.13;4977196;28;20867;-57
2023/01/11 10:24:10;;;;;;;2.73;0.80;;;10.40;73.90;;;10.16;50.53;94821.69;4978316;28;20505;-58
2023/01/11 10:26:40;;;;;;;1.80;1.03;;;10.30;74.80;;;10.05;50.77;94813.00;4978931;28;20454;-55
2023/01/11 10:29:28;;;;;;;1.40;1.20;;;10.10;75.70;;;9.97;51.04;94823.34;4979726;28;20482;-56
2023/01/11 10:34:58;;;;;;;1.33;1.23;;;9.90;78.40;;;9.73;51.58;94826.38;4973600;28;20755;-55
2023/01/11 10:37:45;;;;;;;8.63;1.50;;;9.80;79.00;;;9.64;51.77;94828.00;4982000;28;20459;-56
2023/01/11 10:40:33;;;;;;;1.60;1.50;;;9.70;79.50;;;9.61;52.45;94817.78;4975175;28;20529;-57
2023/01/11 10:43:04;;;;;;;2.90;1.07;;;9.70;81.00;;;9.62;52.29;94814.19;4974715;28;20494;-56
2023/01/11 10:45:38;;;;;;;1.43;1.33;;;9.70;81.50;;;9.63;52.25;94809.75;4976021;28;20531;-55
2023/01/11 10:48:10;;;;;;;1.20;0.90;;;9.70;81.30;;;9.59;51.97;94811.84;4979185;28;20542;-57
2023/01/11 10:50:41;;;;;;;1.10;0.80;;;9.70;81.40;;;9.53;52.32;94817.63;4978559;28;20459;-57
2023/01/11 10:53:15;;;;;;;1.10;1.00;;;9.60;81.50;;;9.48;52.27;94818.03;4976896;28;20585;-57
2023/01/11 10:55:47;;;;;;;1.80;1.70;;;9.50;82.00;;;9.43;52.85;94811.50;4975414;28;20454;-57
2023/01/11 10:58:23;;;;;;;1.30;1.20;;;9.50;82.60;;;9.43;52.93;94816.75;4978466;28;20482;-56
2023/01/11 11:00:55;;;;;;;1.00;0.90;;;9.50;83.50;;;9.42;53.23;94812.47;4976102;28;20932;-55
2023/01/11 11:03:44;;;;;;;1.10;1.00;;;9.50;84.00;;;9.39;52.44;94816.22;4979947;28;20561;-57
2023/01/11 11:06:18;;;;;;;1.73;1.30;;;9.50;82.50;;;9.36;52.61;94811.22;4978039;28;20494;-57
2023/01/11 11:08:48;;;;;;;1.20;1.10;;;9.40;83.10;;;9.36;52.98;94815.63;4976139;28;20477;-56
2023/01/11 11:11:18;;;;;;;1.33;1.23;;;9.40;83.40;;;9.36;52.81;94810.38;4979449;28;20509;-55